Time;durP1;ratioP1;P1;durP2;ratioP2;P2;SDS_P1;SDS_P2;PMS_P1;PMS_P2;Temp;Humidity;BMP_temperature;BMP_pressure;BME280_temperature;BME280_humidity;BME280_pressure;Samples;Min_cycle;Max_cycle;Signal;HPM_P1;HPM_P2
2021/08/22 00:00:26;;;;;;;15.48;11.07;;;;;;;-142.75;87.26;76351.81;4988517;28;20050;-79
2021/08/22 00:02:51;;;;;;;17.27;10.00;;;;;;;-142.75;87.42;76353.78;4973109;28;20045;-79
2021/08/22 00:05:16;;;;;;;18.20;10.48;;;;;;;-142.75;87.37;76341.97;4986587;28;20015;-80
2021/08/22 00:07:42;;;;;;;;;;;;;;;-142.75;87.34;76349.81;4989255;28;20042;-80
2021/08/22 00:10:07;;;;;;;16.63;10.55;;;;;;;-142.75;87.40;76349.81;4968781;28;19914;-79
2021/08/22 00:12:33;;;;;;;14.32;9.85;;;;;;;-142.75;86.73;76341.97;4967254;28;20034;-79
2021/08/22 00:14:58;;;;;;;;;;;;;;;-142.75;86.34;76336.06;4986871;28;20030;-79
2021/08/22 00:17:23;;;;;;;17.05;10.18;;;;;;;-142.75;86.41;76359.66;4984646;28;19913;-81
2021/08/22 00:19:49;;;;;;;15.85;10.35;;;;;;;-142.75;86.58;76361.63;4972235;28;20172;-82
2021/08/22 00:22:14;;;;;;;;;;;;;;;-142.75;86.50;76373.44;4974273;28;20033;-79
2021/08/22 00:24:39;;;;;;;19.35;10.82;;;;;;;-142.75;86.42;76371.47;4991151;28;20398;-78
2021/08/22 00:27:05;;;;;;;14.80;10.07;;;;;;;-142.75;86.48;76367.53;4970833;28;20037;-79
2021/08/22 00:29:30;;;;;;;12.85;9.27;;;;;;;-142.75;86.46;76385.25;5029284;22;20067;-79
2021/08/22 00:31:55;;;;;;;17.17;9.80;;;;;;;-142.75;86.46;76353.78;5015600;28;20124;-78
2021/08/22 00:34:21;;;;;;;;;;;;;;;-142.75;86.38;76393.13;5012008;28;20535;-80
2021/08/22 00:36:46;;;;;;;13.40;8.77;;;;;;;-142.75;86.86;76399.03;5017096;28;19918;-81
2021/08/22 00:39:11;;;;;;;;;;;;;;;-142.75;87.15;76393.13;5027813;28;20030;-80
2021/08/22 00:41:38;;;;;;;14.68;9.68;;;;;;;-142.75;87.46;76399.03;5093912;28;20431;-78
2021/08/22 00:44:04;;;;;;;19.95;10.25;;;;;;;-142.75;87.44;76361.63;5097183;28;20025;-79
2021/08/22 00:46:31;;;;;;;15.07;10.27;;;;;;;-142.75;86.92;76373.44;5028471;28;20022;-81
2021/08/22 00:48:57;;;;;;;14.27;10.32;;;;;;;-142.75;87.47;76408.88;5093924;28;20055;-82
2021/08/22 00:51:22;;;;;;;17.58;9.75;;;;;;;-142.75;87.83;76408.88;5096311;28;20032;-81
2021/08/22 00:53:47;;;;;;;12.95;8.80;;;;;;;-142.75;88.01;76399.03;5028044;28;20056;-81
2021/08/22 00:56:14;;;;;;;12.50;9.57;;;;;;;-142.75;88.21;76402.97;5096275;28;20029;-79
2021/08/22 00:58:39;;;;;;;15.13;9.20;;;;;;;-142.75;88.09;76385.25;5096444;28;20482;-80
2021/08/22 01:01:16;;;;;;;16.98;8.73;;;;;;;-142.75;87.36;76361.63;5028148;28;20029;-80
2021/08/22 01:03:54;;;;;;;12.43;8.20;;;;;;;-142.75;87.59;76402.97;5096728;28;20178;-80
2021/08/22 01:06:43;;;;;;;12.30;8.18;;;;;;;-142.75;88.10;76412.81;5096709;28;20022;-82
2021/08/22 01:09:14;;;;;;;15.20;7.70;;;;;;;-142.75;88.35;76402.97;5028191;28;20098;-79
2021/08/22 01:11:41;;;;;;;15.80;8.23;;;;;;;-142.75;88.37;76422.66;5096227;28;20032;-80
2021/08/22 01:14:11;;;;;;;15.13;7.57;;;;;;;-142.75;88.60;76420.69;5096912;28;20140;-79
2021/08/22 01:16:40;;;;;;;11.82;6.63;;;;;;;-142.75;88.69;76412.81;5027907;28;20032;-79
2021/08/22 01:19:23;;;;;;;14.23;6.35;;;;;;;-142.75;88.57;76406.91;5028136;28;20029;-80
2021/08/22 01:21:49;;;;;;;14.60;5.88;;;;;;;-142.75;88.33;76401.00;5096268;28;20086;-81
2021/08/22 01:24:18;;;;;;;15.07;5.88;;;;;;;-142.75;87.82;76401.00;5027995;28;20039;-80
2021/08/22 01:26:45;;;;;;;9.80;5.43;;;;;;;-142.75;87.70;76402.97;5026388;28;20018;-80
2021/08/22 01:29:10;;;;;;;11.40;5.78;;;;;;;-142.75;87.47;76404.94;5027806;28;20041;-79
2021/08/22 01:31:48;;;;;;;12.82;5.32;;;;;;;-142.75;87.52;76406.91;5027565;28;20033;-80
2021/08/22 01:34:15;;;;;;;12.82;5.00;;;;;;;-142.75;87.82;76412.81;5094452;28;20026;-79
2021/08/22 01:36:42;;;;;;;10.20;5.18;;;;;;;-142.75;87.48;76399.03;5096013;28;20029;-79
2021/08/22 01:39:09;;;;;;;11.63;5.25;;;;;;;-142.75;86.74;76359.66;5096132;28;20049;-81
2021/08/22 01:41:35;;;;;;;10.07;5.60;;;;;;;-142.75;85.85;76381.31;5095881;28;20486;-81
2021/08/22 01:44:01;;;;;;;14.48;5.43;;;;;;;-142.75;86.25;76408.88;5094787;28;20040;-78
2021/08/22 01:46:36;;;;;;;11.07;4.93;;;;;;;-142.75;86.59;76420.69;5028008;28;20056;-79
2021/08/22 01:49:09;;;;;;;11.55;4.75;;;;;;;-142.75;86.65;76416.75;5096069;28;20033;-79
2021/08/22 01:51:35;;;;;;;15.73;5.30;;;;;;;-142.75;86.55;76428.56;5030707;28;20025;-79
2021/08/22 01:54:05;;;;;;;9.40;4.75;;;;;;;-142.75;86.29;76420.69;5027712;28;20421;-78
2021/08/22 01:56:31;;;;;;;9.02;4.82;;;;;;;-142.75;86.21;76426.59;5095984;28;20021;-79
2021/08/22 01:58:57;;;;;;;12.27;5.13;;;;;;;-142.75;85.86;76412.81;5095875;28;20029;-78
2021/08/22 02:01:22;;;;;;;9.73;4.20;;;;;;;-142.75;85.11;76397.06;5028249;28;20497;-80
2021/08/22 02:03:54;;;;;;;;;;;;;;;-142.75;84.40;76408.88;5096419;28;20048;-78
2021/08/22 02:06:30;;;;;;;11.73;4.28;;;;;;;-142.75;84.49;76450.22;5096086;28;20335;-80
2021/08/22 02:08:59;;;;;;;;;;;;;;;-142.75;84.99;76475.81;5095007;28;20124;-80
2021/08/22 02:11:26;;;;;;;10.15;4.72;;;;;;;-142.75;85.50;76487.63;5027639;28;19913;-79
2021/08/22 02:13:54;;;;;;;15.48;5.40;;;;;;;-142.75;85.84;76491.56;5028307;28;20033;-80
2021/08/22 02:16:24;;;;;;;11.63;5.13;;;;;;;-142.75;86.11;76505.34;5027364;28;20032;-79
2021/08/22 02:18:55;;;;;;;13.95;5.97;;;;;;;-142.75;86.32;76519.13;5086864;28;20081;-79
2021/08/22 02:21:21;;;;;;;14.57;6.30;;;;;;;-142.75;86.65;76515.19;5027360;28;20379;-80
2021/08/22 02:23:49;;;;;;;13.70;6.40;;;;;;;-142.75;86.50;76511.25;5027858;28;20029;-80
2021/08/22 02:26:15;;;;;;;14.98;6.53;;;;;;;-142.75;87.04;76517.16;5027134;28;20026;-78
2021/08/22 02:28:40;;;;;;;14.70;6.28;;;;;;;-142.75;87.50;76501.41;5095124;28;20021;-79
2021/08/22 02:31:05;;;;;;;;;;;;;;;-142.75;87.85;76495.50;5095876;28;20022;-79
2021/08/22 02:33:30;;;;;;;17.70;7.35;;;;;;;-142.75;87.87;76477.78;5026990;28;19927;-79
2021/08/22 02:35:56;;;;;;;16.50;7.78;;;;;;;-142.75;87.27;76475.81;5095661;28;20034;-79
2021/08/22 02:38:21;;;;;;;;;;;;;;;-142.75;87.45;76487.63;5027699;28;20030;-79
2021/08/22 02:40:46;;;;;;;11.77;6.97;;;;;;;-142.75;87.63;76487.63;5095193;28;19913;-79
2021/08/22 02:43:11;;;;;;;;;;;;;;;-142.75;87.59;76485.66;5096737;28;20037;-80
2021/08/22 02:45:37;;;;;;;13.18;8.02;;;;;;;-142.75;87.46;76495.50;5095351;28;20527;-79
2021/08/22 02:48:02;;;;;;;;;;;;;;;-142.75;87.42;76491.56;5095697;28;20100;-79
2021/08/22 02:50:28;;;;;;;19.13;9.20;;;;;;;-142.75;87.25;76503.38;5027366;28;19921;-79
2021/08/22 02:52:54;;;;;;;14.63;8.80;;;;;;;-142.75;87.18;76511.25;5027855;28;20053;-80
2021/08/22 02:55:19;;;;;;;18.60;9.20;;;;;;;-142.75;87.10;76525.03;5027456;28;20061;-80
2021/08/22 02:57:44;;;;;;;17.23;10.60;;;;;;;-142.75;87.08;76536.84;5095160;28;20068;-79
2021/08/22 03:00:10;;;;;;;19.92;8.98;;;;;;;-142.75;87.10;76538.78;5095121;28;20025;-78
2021/08/22 03:02:36;;;;;;;;;;;;;;;-142.75;87.25;76536.84;5096712;28;20028;-79
2021/08/22 03:05:01;;;;;;;22.13;10.48;;;;;;;-142.75;87.17;76532.88;5095733;28;19942;-80
2021/08/22 03:07:27;;;;;;;18.63;9.13;;;;;;;-142.75;87.43;76538.78;5095993;28;20022;-80
2021/08/22 03:09:52;;;;;;;;;;;;;;;-142.75;87.32;76530.91;5029446;28;20388;-80
2021/08/22 03:12:17;;;;;;;13.85;8.25;;;;;;;-142.75;87.34;76527.00;5097604;28;19913;-80
2021/08/22 03:14:42;;;;;;;;;;;;;;;-142.75;87.15;76534.84;5031371;28;20045;-79
2021/08/22 03:17:08;;;;;;;16.08;10.30;;;;;;;-142.75;87.11;76542.72;5033847;28;19913;-80
2021/08/22 03:19:33;;;;;;;;;;;;;;;-142.75;87.22;76558.47;5036225;28;20029;-80
2021/08/22 03:21:59;;;;;;;25.98;11.32;;;;;;;-142.75;87.15;76560.44;5039380;28;19912;-79
2021/08/22 03:24:24;;;;;;;;;;;;;;;-142.75;87.43;76562.41;5110304;28;20025;-80
2021/08/22 03:26:49;;;;;;;31.80;15.27;;;;;;;-142.75;87.66;76570.28;5039734;28;19913;-80
2021/08/22 03:29:14;;;;;;;;;;;;;;;-142.75;88.02;76570.28;5104665;28;20030;-80
2021/08/22 03:31:39;;;;;;;30.70;15.02;;;;;;;-142.75;88.11;76570.28;5035442;28;20004;-80
2021/08/22 03:34:05;;;;;;;;;;;;;;;-142.75;88.72;76570.28;5035465;28;20062;-80
2021/08/22 03:36:30;;;;;;;29.65;17.55;;;;;;;-142.75;88.98;76560.44;5033173;28;20302;-79
2021/08/22 03:38:55;;;;;;;;;;;;;;;-142.75;89.24;76550.59;5100948;28;20059;-80
2021/08/22 03:41:20;;;;;;;32.28;18.50;;;;;;;-142.75;89.59;76548.63;5032679;28;19917;-80
2021/08/22 03:43:46;;;;;;;;;;;;;;;-142.75;89.90;76540.75;5101173;28;20159;-80
2021/08/22 03:46:11;;;;;;;43.20;22.02;;;;;;;-142.75;90.21;76534.84;5100040;28;19924;-79
2021/08/22 03:48:36;;;;;;;;;;;;;;;-142.75;90.65;76525.03;5099358;28;20356;-80
2021/08/22 03:51:02;;;;;;;45.38;22.02;;;;;;;-142.75;90.89;76527.00;5030631;28;19949;-80
2021/08/22 03:53:27;;;;;;;;;;;;;;;-142.75;91.15;76527.00;5030647;28;20033;-81
2021/08/22 03:55:52;;;;;;;40.72;22.48;;;;;;;-142.75;91.24;76527.00;5029581;28;19924;-80
2021/08/22 03:58:17;;;;;;;37.25;21.55;;;;;;;-142.75;91.51;76517.16;5098514;28;20022;-80
2021/08/22 04:00:42;;;;;;;;;;;;;;;-142.75;91.49;76511.25;5098684;28;20033;-80
2021/08/22 04:03:08;;;;;;;32.50;20.13;;;;;;;-142.75;91.59;76511.25;5029856;28;19956;-80
2021/08/22 04:05:33;;;;;;;37.65;21.67;;;;;;;-142.75;91.55;76497.47;5098387;28;20056;-78
2021/08/22 04:08:00;;;;;;;42.22;22.45;;;;;;;-142.75;91.55;76493.53;5029824;28;20021;-79
2021/08/22 04:10:26;;;;;;;48.35;25.55;;;;;;;-142.75;91.55;76491.56;5097695;28;20070;-80
2021/08/22 04:12:52;;;;;;;49.30;25.98;;;;;;;-142.75;91.44;76491.56;5029998;28;20036;-80
2021/08/22 04:15:17;;;;;;;41.50;24.08;;;;;;;-142.75;91.37;76503.38;5097590;28;20057;-81
2021/08/22 04:17:43;;;;;;;39.88;23.90;;;;;;;-142.75;91.40;76499.44;5028964;28;20559;-80
2021/08/22 04:20:08;;;;;;;;;;;;;;;-142.75;91.47;76495.50;5097921;28;20048;-80
2021/08/22 04:22:36;;;;;;;40.00;22.92;;;;;;;-142.75;91.59;76491.56;5027155;28;19920;-80
2021/08/22 04:25:03;;;;;;;43.55;24.38;;;;;;;-142.75;91.55;76483.69;5097865;28;20017;-79
2021/08/22 04:27:28;;;;;;;44.85;26.55;;;;;;;-142.75;91.67;76477.78;5029121;28;20096;-78
2021/08/22 04:29:53;;;;;;;48.58;25.52;;;;;;;-142.75;91.61;76469.91;5097312;28;20041;-79
2021/08/22 04:32:19;;;;;;;;;;;;;;;-142.75;91.74;76462.03;5097784;28;20017;-80
2021/08/22 04:34:44;;;;;;;46.28;29.88;;;;;;;-142.75;91.63;76454.16;5097614;28;20408;-80
2021/08/22 04:37:09;;;;;;;;;;;;;;;-142.75;91.50;76448.25;5029954;28;20436;-78
2021/08/22 04:39:34;;;;;;;49.75;28.88;;;;;;;-142.75;91.42;76448.25;5029359;28;19920;-80
2021/08/22 04:42:00;;;;;;;;;;;;;;;-142.75;91.20;76448.25;5029779;28;20022;-79
2021/08/22 04:44:25;;;;;;;42.92;27.02;;;;;;;-142.75;91.22;76444.31;5098632;28;20004;-79
2021/08/22 04:46:51;;;;;;;40.72;25.48;;;;;;;-142.75;91.06;76444.31;5029973;28;20052;-80
2021/08/22 04:49:16;;;;;;;;;;;;;;;-142.75;90.83;76436.44;5029250;28;20025;-79
2021/08/22 04:51:41;;;;;;;35.42;21.10;;;;;;;-142.75;90.58;76438.41;5097771;28;19917;-80
2021/08/22 04:54:06;;;;;;;;;;;;;;;-142.75;90.39;76444.31;5030079;28;20048;-79
2021/08/22 04:56:32;;;;;;;36.03;21.52;;;;;;;-142.75;89.88;76444.31;5029325;28;19917;-80
2021/08/22 04:58:57;;;;;;;31.77;21.92;;;;;;;-142.75;89.70;76438.41;5029370;28;20086;-79
2021/08/22 05:01:22;;;;;;;35.60;21.02;;;;;;;-142.75;89.63;76436.44;5029121;28;20022;-80
2021/08/22 05:03:48;;;;;;;;;;;;;;;-142.75;89.29;76436.44;5029796;28;20078;-80
2021/08/22 05:06:13;;;;;;;28.60;19.58;;;;;;;-142.75;89.12;76438.41;5028768;28;20437;-78
2021/08/22 05:08:39;;;;;;;31.27;22.08;;;;;;;-142.75;89.14;76440.38;5097254;28;20494;-80
2021/08/22 05:11:05;;;;;;;41.00;20.45;;;;;;;-142.75;88.91;76436.44;5028792;28;20052;-80
2021/08/22 05:13:30;;;;;;;30.63;21.42;;;;;;;-142.75;88.91;76440.38;5029480;28;20122;-79
2021/08/22 05:15:55;;;;;;;31.65;20.25;;;;;;;-142.75;88.85;76440.38;5029009;28;20021;-80
2021/08/22 05:18:24;;;;;;;28.38;19.58;;;;;;;-142.75;88.80;76440.38;5028923;28;20041;-81
2021/08/22 05:20:51;;;;;;;31.17;20.05;;;;;;;-142.75;88.48;76442.34;5096906;28;20045;-80
2021/08/22 05:23:17;;;;;;;29.88;19.85;;;;;;;-142.75;88.19;76440.38;5096858;28;20022;-80
2021/08/22 05:25:43;;;;;;;32.08;19.50;;;;;;;-142.75;87.87;76438.41;5028707;28;20061;-80
2021/08/22 05:28:08;;;;;;;31.90;19.55;;;;;;;-142.75;87.92;76440.38;5028355;28;20049;-79
2021/08/22 05:30:35;;;;;;;33.40;19.83;;;;;;;-142.75;87.93;76438.41;5096567;28;20112;-81
2021/08/22 05:33:00;;;;;;;32.90;19.42;;;;;;;-142.75;87.91;76442.34;5096871;28;20410;-79
2021/08/22 05:35:25;;;;;;;27.83;19.02;;;;;;;-142.75;87.76;76442.34;5097050;28;20033;-80
2021/08/22 05:37:50;;;;;;;30.73;19.60;;;;;;;-142.75;87.52;76446.28;5096279;28;20025;-79
2021/08/22 05:40:16;;;;;;;35.35;20.10;;;;;;;-142.75;87.71;76440.38;5029787;28;20030;-80
2021/08/22 05:42:41;;;;;;;;;;;;;;;-142.75;87.59;76432.50;5097201;28;20117;-81
2021/08/22 05:45:07;;;;;;;34.05;20.17;;;;;;;-142.75;87.61;76436.44;5099547;28;19913;-81
2021/08/22 05:47:32;;;;;;;;;;;;;;;-142.75;87.34;76438.41;5032100;28;20037;-81
2021/08/22 05:49:57;;;;;;;35.92;20.40;;;;;;;-142.75;87.31;76432.50;5103839;28;19913;-81
2021/08/22 05:52:22;;;;;;;;;;;;;;;-142.75;87.40;76440.38;5031939;28;20022;-78
2021/08/22 05:54:47;;;;;;;32.53;20.02;;;;;;;-142.75;87.41;76448.25;5099914;28;19913;-80
2021/08/22 05:57:13;;;;;;;32.70;20.17;;;;;;;-142.75;87.61;76444.31;5032940;28;20025;-80
2021/08/22 05:59:38;;;;;;;;;;;;;;;-142.75;87.49;76444.31;5030390;28;20026;-80
2021/08/22 06:02:04;;;;;;;35.85;19.58;;;;;;;-142.75;87.44;76440.38;5097457;28;19996;-80
2021/08/22 06:04:30;;;;;;;30.50;18.58;;;;;;;-142.75;87.53;76446.28;5030587;28;20048;-80
2021/08/22 06:06:55;;;;;;;33.03;19.30;;;;;;;-142.75;87.54;76434.47;5095949;28;20415;-80
2021/08/22 06:09:20;;;;;;;30.20;19.13;;;;;;;-142.75;87.46;76426.59;5029022;28;20028;-80
2021/08/22 06:11:46;;;;;;;32.78;17.77;;;;;;;-142.75;87.25;76432.50;5029001;28;20026;-79
2021/08/22 06:14:11;;;;;;;;;;;;;;;-142.75;87.18;76436.44;5097154;28;20048;-79
2021/08/22 06:16:36;;;;;;;26.17;16.45;;;;;;;-142.75;87.03;76444.31;5027814;28;19917;-80
2021/08/22 06:19:02;;;;;;;28.23;16.10;;;;;;;-142.75;87.03;76436.44;5028621;28;20033;-80
2021/08/22 06:21:27;;;;;;;;;;;;;;;-142.75;86.88;76436.44;5096610;28;20100;-80
2021/08/22 06:23:53;;;;;;;26.08;16.17;;;;;;;-142.75;86.82;76436.44;5096588;28;19913;-79
2021/08/22 06:26:19;;;;;;;32.42;15.85;;;;;;;-142.75;86.56;76420.69;5028897;28;20475;-79
2021/08/22 06:28:44;;;;;;;24.10;15.35;;;;;;;-142.75;86.50;76430.53;5049578;22;20017;-82
2021/08/22 06:31:09;;;;;;;;;;;;;;;-142.75;86.67;76418.72;5001818;28;20460;-85
2021/08/22 06:33:35;;;;;;;21.85;13.85;;;;;;;-142.75;86.33;76416.75;4996440;28;19920;-84
2021/08/22 06:36:01;;;;;;;24.50;15.20;;;;;;;-142.75;86.17;76422.66;5037546;28;20022;-84
2021/08/22 06:38:27;;;;;;;23.75;14.50;;;;;;;-142.75;86.03;76408.88;5028658;28;20030;-84
2021/08/22 06:40:52;;;;;;;22.30;14.27;;;;;;;-142.75;85.90;76393.13;5009001;28;20045;-83
2021/08/22 06:43:17;;;;;;;24.45;15.55;;;;;;;-142.75;85.35;76395.09;5069101;28;20026;-84
2021/08/22 06:45:42;;;;;;;;;;;;;;;-142.75;84.90;76369.50;5012639;28;20057;-85
2021/08/22 06:48:11;;;;;;;25.90;16.35;;;;;;;-142.75;84.70;76363.59;5069620;28;19968;-84
2021/08/22 06:50:36;;;;;;;28.30;16.08;;;;;;;-142.75;84.22;76353.78;5002471;28;20029;-83
2021/08/22 06:53:01;;;;;;;31.88;16.42;;;;;;;-142.75;83.97;76349.81;5072295;28;20020;-83
2021/08/22 06:55:26;;;;;;;25.50;16.00;;;;;;;-142.75;83.09;76324.25;5073274;28;20021;-85
2021/08/22 06:57:52;;;;;;;;;;;;;;;-142.75;82.47;76322.28;5079111;28;20440;-83
2021/08/22 07:00:17;;;;;;;29.97;16.43;;;;;;;-142.75;82.54;76326.22;5076044;28;19992;-84
2021/08/22 07:02:44;;;;;;;;;;;;;;;-142.75;82.54;76322.28;5081691;28;20282;-85
2021/08/22 07:05:09;;;;;;;35.40;18.50;;;;;;;-142.75;82.45;76322.28;5005028;28;19936;-85
2021/08/22 07:07:34;;;;;;;;;;;;;;;-142.75;82.66;76310.47;5069122;28;20765;-84
2021/08/22 07:10:00;;;;;;;29.13;17.42;;;;;;;-142.75;82.83;76306.53;5073949;28;19913;-85
2021/08/22 07:12:25;;;;;;;28.67;18.10;;;;;;;-142.75;82.12;76316.38;5072057;28;20085;-85
2021/08/22 07:14:50;;;;;;;28.35;17.52;;;;;;;-142.75;81.78;76302.59;5078329;28;20033;-83
2021/08/22 07:17:20;;;;;;;27.05;18.25;;;;;;;-142.75;80.96;76294.72;5076411;28;20029;-85
2021/08/22 07:19:45;;;;;;;27.67;17.67;;;;;;;-142.75;80.86;76275.03;5067386;28;20032;-82
2021/08/22 07:22:10;;;;;;;25.52;16.95;;;;;;;-142.75;80.45;76259.28;5072435;28;20026;-85
2021/08/22 07:24:35;;;;;;;24.92;16.95;;;;;;;-142.75;80.13;76239.59;5077901;28;20018;-86
2021/08/22 07:27:01;;;;;;;27.83;16.25;;;;;;;-142.75;79.23;76241.56;5004313;28;20098;-85
2021/08/22 07:29:26;;;;;;;22.10;14.98;;;;;;;-142.75;79.08;76231.72;5064453;28;20026;-86
2021/08/22 07:31:51;;;;;;;23.80;14.88;;;;;;;-142.75;78.40;76210.06;5065505;28;20441;-84
2021/08/22 07:34:16;;;;;;;27.90;16.05;;;;;;;-142.75;77.53;76196.31;5002385;28;20018;-85
2021/08/22 07:36:42;;;;;;;21.65;15.43;;;;;;;-142.75;77.49;76172.69;5004758;28;20049;-85
2021/08/22 07:39:07;;;;;;;19.48;13.55;;;;;;;-142.75;76.07;76160.88;5067201;28;20074;-86
2021/08/22 07:41:32;;;;;;;22.73;14.02;;;;;;;-142.75;75.38;76147.09;4999637;28;20501;-84
2021/08/22 07:43:58;;;;;;;19.00;13.93;;;;;;;-142.75;74.87;76164.81;5071372;28;20106;-86
2021/08/22 07:46:23;;;;;;;22.40;13.38;;;;;;;-142.75;74.40;76160.88;5074064;28;20028;-83
2021/08/22 07:48:48;;;;;;;23.42;13.50;;;;;;;-142.75;74.81;76141.19;5068808;28;20578;-86
2021/08/22 07:51:13;;;;;;;18.58;12.98;;;;;;;-142.75;74.33;76143.16;5008710;28;20079;-85
2021/08/22 07:53:39;;;;;;;23.10;12.57;;;;;;;-142.75;74.29;76117.56;5002557;28;20025;-86
2021/08/22 07:56:05;;;;;;;20.15;11.93;;;;;;;-142.75;74.18;76066.41;5073185;28;20495;-85
2021/08/22 07:58:31;;;;;;;19.67;11.48;;;;;;;-142.75;73.27;76007.34;5001752;28;20498;-84
2021/08/22 08:00:56;;;;;;;20.75;13.10;;;;;;;-142.75;70.72;75912.88;5003265;28;20022;-85
2021/08/22 08:03:22;;;;;;;16.55;11.00;;;;;;;-142.75;66.49;75769.19;4993073;28;20026;-86
2021/08/22 08:05:47;;;;;;;12.15;9.40;;;;;;;-142.75;61.59;75727.88;5070667;28;20037;-84
2021/08/22 08:08:12;;;;;;;18.50;9.40;;;;;;;-142.75;60.56;75731.81;5067725;28;20030;-82
2021/08/22 08:10:38;;;;;;;18.55;10.00;;;;;;;-142.75;60.28;75753.47;5059569;28;20018;-85
2021/08/22 08:13:03;;;;;;;13.48;8.77;;;;;;;-142.75;59.75;75723.94;4996319;28;20030;-84
2021/08/22 08:15:28;;;;;;;14.90;9.02;;;;;;;-142.75;59.48;75672.78;5081722;28;20445;-83
2021/08/22 08:17:53;;;;;;;15.07;9.10;;;;;;;-142.75;58.98;75649.16;4996125;28;20448;-82
2021/08/22 08:20:19;;;;;;;18.60;10.38;;;;;;;-142.75;59.81;75548.78;5073766;28;20101;-83
2021/08/22 08:22:44;;;;;;;15.70;10.45;;;;;;;-142.75;57.33;75639.31;5002521;28;20029;-84
2021/08/22 08:25:09;;;;;;;13.57;9.80;;;;;;;-142.75;57.17;75613.72;4997402;28;20456;-86
2021/08/22 08:27:35;;;;;;;14.52;10.15;;;;;;;-142.75;57.22;75645.22;5062251;28;20057;-85
2021/08/22 08:30:00;;;;;;;14.88;10.93;;;;;;;-142.75;58.58;75743.63;4993067;28;20076;-85
2021/08/22 08:32:26;;;;;;;16.10;11.18;;;;;;;-142.75;59.20;75847.94;4993013;28;20033;-84
2021/08/22 08:34:51;;;;;;;16.50;11.55;;;;;;;-142.75;59.79;75853.84;5063290;28;20024;-88
2021/08/22 08:37:16;;;;;;;15.52;11.45;;;;;;;-142.75;61.98;75851.88;5070299;28;20116;-82
2021/08/22 08:39:42;;;;;;;19.05;12.20;;;;;;;-142.75;60.96;75879.41;5067865;28;20094;-86
2021/08/22 08:42:33;;;;;;;20.23;11.68;;;;;;;-142.75;61.31;75873.50;5068290;28;20039;-86
2021/08/22 08:44:58;;;;;;;16.75;12.20;;;;;;;-142.75;60.82;75895.16;5070362;28;20040;-85
2021/08/22 08:47:25;;;;;;;17.60;12.40;;;;;;;-142.75;61.84;75910.91;5010822;28;20032;-82
2021/08/22 08:50:05;;;;;;;19.98;12.60;;;;;;;-142.75;62.92;75869.56;5012463;28;20139;-82
2021/08/22 08:52:48;;;;;;;16.02;12.25;;;;;;;-142.75;62.70;75751.50;5006643;28;20433;-85
2021/08/22 08:55:30;;;;;;;17.48;11.73;;;;;;;-142.75;59.00;75696.38;5002566;28;20026;-87
2021/08/22 08:57:58;;;;;;;14.85;10.15;;;;;;;-142.75;58.86;75664.91;5079649;28;20032;-84
2021/08/22 09:00:24;;;;;;;16.33;9.70;;;;;;;-142.75;58.91;75698.34;5005315;28;20059;-82
2021/08/22 09:02:49;;;;;;;12.77;9.75;;;;;;;-142.75;57.01;75714.09;5076419;28;20421;-85
2021/08/22 09:05:44;;;;;;;15.13;10.15;;;;;;;-142.75;58.11;75784.94;4996446;28;20101;-84
2021/08/22 09:08:47;;;;;;;13.25;10.27;;;;;;;-142.75;59.88;75794.78;5069449;28;20038;-84
2021/08/22 09:11:15;;;;;;;14.82;9.88;;;;;;;-142.75;60.09;75818.41;4997855;28;20061;-83
2021/08/22 09:14:05;;;;;;;18.40;9.45;;;;;;;-142.75;60.44;75845.97;5062028;28;20052;-82
2021/08/22 09:16:45;;;;;;;12.35;9.57;;;;;;;-142.75;60.96;75867.59;5002270;28;20038;-83
2021/08/22 09:19:47;;;;;;;14.65;9.15;;;;;;;-142.75;61.81;75916.81;5006639;28;20082;-83
2021/08/22 09:22:34;;;;;;;18.73;10.57;;;;;;;-142.75;62.43;75942.41;4992915;28;20058;-88
2021/08/22 09:25:48;;;;;;;15.63;10.75;;;;;;;-142.75;62.78;75920.75;5064630;28;20031;-84
2021/08/22 09:28:51;;;;;;;16.08;11.07;;;;;;;-142.75;62.25;75865.63;5009548;28;20074;-83
2021/08/22 09:31:54;;;;;;;13.30;10.25;;;;;;;-142.75;60.82;75847.94;5062016;28;20118;-84
2021/08/22 09:34:51;;;;;;;14.20;9.70;;;;;;;-142.75;61.32;75822.34;4998040;28;20100;-81
2021/08/22 09:37:28;;;;;;;12.93;8.95;;;;;;;-142.75;59.07;75777.06;5001527;28;20029;-80
2021/08/22 09:40:31;;;;;;;12.73;9.40;;;;;;;-142.75;59.05;75619.63;5065607;28;20494;-82
2021/08/22 09:43:06;;;;;;;14.13;9.70;;;;;;;-142.75;55.60;75560.59;5069170;28;20036;-83
2021/08/22 09:46:09;;;;;;;11.48;8.60;;;;;;;-142.75;54.79;75570.44;5069116;28;20436;-83
2021/08/22 09:49:12;;;;;;;13.07;9.27;;;;;;;-142.75;55.81;75576.34;4994573;28;20109;-80
2021/08/22 09:52:14;;;;;;;12.52;8.90;;;;;;;-142.75;53.60;75629.47;4993783;28;20046;-83
2021/08/22 09:55:08;;;;;;;13.80;10.27;;;;;;;-142.75;55.59;75710.16;4993112;28;20037;-84
2021/08/22 09:58:10;;;;;;;13.98;11.02;;;;;;;-142.75;56.99;75741.66;4992671;28;20068;-82
2021/08/22 10:00:59;;;;;;;15.23;11.52;;;;;;;-142.75;57.98;75782.97;5005950;28;20033;-82
2021/08/22 10:03:39;;;;;;;13.63;10.63;;;;;;;-142.75;58.54;75824.31;4994812;28;20412;-83
2021/08/22 10:06:07;;;;;;;14.43;9.93;;;;;;;-142.75;59.57;75857.78;5000671;28;20083;-85
2021/08/22 10:08:48;;;;;;;12.88;10.07;;;;;;;-142.75;60.38;75865.63;4998531;28;20030;-83
2021/08/22 10:11:24;;;;;;;14.90;9.55;;;;;;;-142.75;60.42;75875.47;5076777;28;20037;-82
2021/08/22 10:13:50;;;;;;;12.88;9.55;;;;;;;-142.75;60.59;75897.13;5072240;28;20055;-82
2021/08/22 10:16:19;;;;;;;14.43;9.05;;;;;;;-142.75;61.27;75903.03;5012176;28;20014;-81
2021/08/22 10:18:44;;;;;;;12.82;10.07;;;;;;;-142.75;61.59;75940.44;5010340;28;20071;-83
2021/08/22 10:21:11;;;;;;;13.48;10.60;;;;;;;-142.75;61.99;75926.66;4997049;28;20026;-81
2021/08/22 10:23:40;;;;;;;13.43;11.45;;;;;;;-142.75;61.53;75924.69;5004963;28;20053;-81
2021/08/22 10:26:06;;;;;;;17.00;11.38;;;;;;;-142.75;61.92;75908.94;4992902;28;20022;-82
2021/08/22 10:28:44;;;;;;;16.67;11.00;;;;;;;-142.75;63.02;75794.78;4992343;28;20045;-82
2021/08/22 10:31:09;;;;;;;15.65;10.32;;;;;;;-142.75;60.97;75739.69;4994902;28;20042;-81
2021/08/22 10:33:34;;;;;;;16.90;10.13;;;;;;;-142.75;58.79;75757.41;5005117;28;20022;-82
2021/08/22 10:36:29;;;;;;;11.07;7.95;;;;;;;-142.75;57.40;75781.00;5005143;28;20072;-82
2021/08/22 10:39:26;;;;;;;9.73;7.70;;;;;;;-142.75;58.02;75881.38;5005412;28;20022;-81
2021/08/22 10:41:58;;;;;;;5.38;2.83;;;;;;;-142.75;60.81;75979.78;5006557;28;20026;-81
2021/08/22 10:44:32;;;;;;;6.05;2.60;;;;;;;-142.75;64.31;76070.34;5067278;28;20532;-82
2021/08/22 10:47:05;;;;;;;5.40;2.72;;;;;;;-142.75;66.05;76149.06;4999261;28;20022;-84
2021/08/22 10:49:52;;;;;;;6.40;2.30;;;;;;;-142.75;68.73;76198.28;4997747;28;20084;-86
2021/08/22 10:52:33;;;;;;;4.75;2.17;;;;;;;-142.75;69.35;76233.69;5000173;28;20061;-81
2021/08/22 10:55:10;;;;;;;5.15;2.20;;;;;;;-142.75;70.78;76261.25;5076477;28;20021;-83
2021/08/22 10:57:42;;;;;;;7.50;2.22;;;;;;;-142.75;71.45;76288.81;5071555;28;20035;-81
2021/08/22 11:00:18;;;;;;;18.75;3.72;;;;;;;-142.75;72.21;76300.63;5001431;28;20030;-80
2021/08/22 11:02:43;;;;;;;9.68;3.00;;;;;;;-142.75;73.16;76316.38;5004757;28;20052;-81
2021/08/22 11:05:19;;;;;;;8.98;2.30;;;;;;;-142.75;73.31;76332.13;5000916;28;20025;-79
2021/08/22 11:07:51;;;;;;;6.00;2.58;;;;;;;-142.75;74.31;76341.97;5001730;28;20026;-81
2021/08/22 11:10:19;;;;;;;6.38;2.05;;;;;;;-142.75;74.57;76343.94;5001198;28;20018;-81
2021/08/22 11:12:46;;;;;;;9.35;2.50;;;;;;;-142.75;74.38;76347.84;4999945;28;20044;-80
2021/08/22 11:15:28;;;;;;;3.22;1.70;;;;;;;-142.75;74.25;76347.84;4995164;28;20053;-80
2021/08/22 11:18:01;;;;;;;7.43;1.88;;;;;;;-142.75;73.65;76361.63;5004370;28;20038;-79
2021/08/22 11:20:29;;;;;;;6.68;2.03;;;;;;;-142.75;74.03;76355.72;4997217;28;20502;-78
2021/08/22 11:23:21;;;;;;;4.65;2.00;;;;;;;-142.75;74.76;76357.69;5003863;28;20034;-80
2021/08/22 11:25:51;;;;;;;3.28;1.63;;;;;;;-142.75;74.83;76363.59;4999234;28;20522;-80